Time;durP1;ratioP1;P1;durP2;ratioP2;P2;SDS_P1;SDS_P2;PMS_P1;PMS_P2;Temp;Humidity;BMP_temperature;BMP_pressure;BME280_temperature;BME280_humidity;BME280_pressure;Samples;Min_cycle;Max_cycle;Signal;HPM_P1;HPM_P2
2022/04/20 00:00:03;;;;;;;2.73;2.50;;;;;;;;;;5040476;28;20269;-85
2022/04/20 00:02:30;;;;;;;2.93;2.40;;;;;;;;;;5048471;28;20237;-86
2022/04/20 00:04:58;;;;;;;9.20;2.70;;;;;;;;;;5043121;28;20237;-86
2022/04/20 00:07:26;;;;;;;5.67;2.60;;;;;;;;;;5052217;28;20570;-87
2022/04/20 00:09:53;;;;;;;3.47;2.73;;;;;;;;;;5046021;28;20238;-85
2022/04/20 00:12:20;;;;;;;2.77;2.57;;;;;;;;;;5040636;28;20227;-87
2022/04/20 00:14:47;;;;;;;3.77;2.57;;;;;;;;;;5034555;28;20246;-87
2022/04/20 00:17:14;;;;;;;2.60;2.40;;;;;;;;;;5041650;28;20206;-87
2022/04/20 00:19:41;;;;;;;3.17;2.53;;;;;;;;;;5032366;28;20246;-86
2022/04/20 00:22:10;;;;;;;3.37;2.70;;;;;;;;;;5032654;28;20258;-87
2022/04/20 00:24:37;;;;;;;2.90;2.57;;;;;;;;;;5032351;28;20641;-87
2022/04/20 00:27:04;;;;;;;3.23;2.63;;;;;;;;;;5043605;28;20225;-87
2022/04/20 00:29:31;;;;;;;2.70;2.50;;;;;;;;;;5048617;28;20191;-87
2022/04/20 00:31:58;;;;;;;2.90;2.70;;;;;;;;;;5037674;28;20230;-87
2022/04/20 00:34:25;;;;;;;2.67;2.40;;;;;;;;;;5043633;28;20685;-87
2022/04/20 00:36:53;;;;;;;3.70;2.70;;;;;;;;;;5038210;28;20209;-86
2022/04/20 00:39:22;;;;;;;4.07;2.70;;;;;;;;;;5051238;28;20709;-87
2022/04/20 00:41:50;;;;;;;3.53;2.53;;;;;;;;;;5051838;28;20240;-85
2022/04/20 00:44:17;;;;;;;4.50;2.90;;;;;;;;;;5052455;28;20198;-84
2022/04/20 00:46:46;;;;;;;2.80;2.60;;;;;;;;;;5052376;28;20208;-87
2022/04/20 00:49:14;;;;;;;2.97;2.60;;;;;;;;;;5032418;28;20211;-87
2022/04/20 00:51:50;;;;;;;3.47;3.10;;;;;;;;;;5036153;28;20589;-87
2022/04/20 00:54:17;;;;;;;3.20;2.60;;;;;;;;;;5043921;28;20201;-87
2022/04/20 00:56:45;;;;;;;5.30;2.60;;;;;;;;;;5036695;28;20201;-85
2022/04/20 00:59:13;;;;;;;2.47;2.27;;;;;;;;;;5055678;28;20206;-86
2022/04/20 01:01:40;;;;;;;3.00;2.67;;;;;;;;;;5051485;28;20230;-87
2022/04/20 01:04:07;;;;;;;2.80;2.60;;;;;;;;;;5046771;28;20547;-86
2022/04/20 01:06:35;;;;;;;6.43;2.63;;;;;;;;;;5066782;28;20222;-88
2022/04/20 01:09:02;;;;;;;3.00;2.77;;;;;;;;;;5067166;28;20205;-87
2022/04/20 01:11:29;;;;;;;3.00;2.70;;;;;;;;;;5070004;28;20229;-87
2022/04/20 01:13:58;;;;;;;3.63;3.33;;;;;;;;;;5056552;28;20237;-86
2022/04/20 01:16:25;;;;;;;2.77;2.57;;;;;;;;;;5055374;28;20236;-87
2022/04/20 01:18:53;;;;;;;2.97;2.67;;;;;;;;;;5055943;28;20205;-88
2022/04/20 01:21:23;;;;;;;2.80;2.60;;;;;;;;;;5055661;28;20234;-87
2022/04/20 01:23:50;;;;;;;2.90;2.70;;;;;;;;;;5047098;28;20293;-87
2022/04/20 01:26:17;;;;;;;4.23;2.43;;;;;;;;;;5049993;28;20234;-86
2022/04/20 01:28:45;;;;;;;3.13;2.57;;;;;;;;;;5055718;28;20578;-87
2022/04/20 01:31:14;;;;;;;3.37;2.60;;;;;;;;;;5054617;28;20592;-87
2022/04/20 01:33:41;;;;;;;2.90;2.70;;;;;;;;;;5052112;28;20685;-86
2022/04/20 01:36:09;;;;;;;5.70;3.00;;;;;;;;;;5035470;28;20242;-86
2022/04/20 01:38:38;;;;;;;2.93;2.63;;;;;;;;;;5035510;28;20357;-87
2022/04/20 01:41:05;;;;;;;6.60;2.60;;;;;;;;;;5035465;28;20244;-87
2022/04/20 01:43:32;;;;;;;2.63;2.43;;;;;;;;;;5035403;28;20299;-87
2022/04/20 01:46:00;;;;;;;4.03;2.60;;;;;;;;;;5052107;28;20248;-85
2022/04/20 01:48:27;;;;;;;3.93;2.80;;;;;;;;;;5041244;28;20207;-87
2022/04/20 01:53:51;;;;;;;3.50;2.50;;;;;;;;;;5005864;28;20205;-87
2022/04/20 01:56:18;;;;;;;6.70;2.60;;;;;;;;;;5026484;28;20233;-87
2022/04/20 01:58:45;;;;;;;3.20;3.00;;;;;;;;;;5038013;28;20572;-87
2022/04/20 02:03:59;;;;;;;3.27;2.97;;;;;;;;;;5048888;28;20201;-87
2022/04/20 02:06:26;;;;;;;4.57;2.67;;;;;;;;;;5039335;28;20706;-87
2022/04/20 02:08:55;;;;;;;2.83;2.63;;;;;;;;;;5055012;28;20203;-87
2022/04/20 02:11:22;;;;;;;3.50;2.73;;;;;;;;;;5054747;28;20241;-87
2022/04/20 02:13:49;;;;;;;3.30;3.00;;;;;;;;;;5055479;28;20576;-86
2022/04/20 02:16:16;;;;;;;3.37;3.07;;;;;;;;;;5050776;28;20240;-87
2022/04/20 02:18:43;;;;;;;4.60;2.80;;;;;;;;;;5035235;28;20245;-87
2022/04/20 02:21:10;;;;;;;3.50;3.20;;;;;;;;;;5037280;28;20241;-86
2022/04/20 02:23:37;;;;;;;6.13;2.73;;;;;;;;;;5055202;28;20221;-86
2022/04/20 02:26:05;;;;;;;3.53;2.87;;;;;;;;;;5053761;28;20587;-87
2022/04/20 02:28:32;;;;;;;2.93;2.60;;;;;;;;;;5035422;28;20202;-87
2022/04/20 02:30:59;;;;;;;3.30;2.60;;;;;;;;;;5043344;28;20231;-86
2022/04/20 02:33:26;;;;;;;4.20;2.67;;;;;;;;;;5050023;28;20201;-87
2022/04/20 02:35:54;;;;;;;2.77;2.57;;;;;;;;;;5054717;28;20628;-86
2022/04/20 02:38:21;;;;;;;4.63;3.30;;;;;;;;;;5054595;28;20709;-87
2022/04/20 02:40:50;;;;;;;3.40;2.73;;;;;;;;;;5040870;28;20325;-86
2022/04/20 02:43:19;;;;;;;3.20;2.90;;;;;;;;;;5053363;28;20198;-85
2022/04/20 02:45:46;;;;;;;3.60;2.90;;;;;;;;;;5054358;28;20240;-86
2022/04/20 02:48:13;;;;;;;5.27;3.13;;;;;;;;;;5034150;28;20209;-86
2022/04/20 02:50:40;;;;;;;3.80;3.40;;;;;;;;;;5033491;28;20235;-87
2022/04/20 02:53:07;;;;;;;11.83;3.17;;;;;;;;;;5034698;28;20226;-87
2022/04/20 02:55:34;;;;;;;3.27;3.00;;;;;;;;;;5033938;28;20237;-86
2022/04/20 02:58:01;;;;;;;4.87;2.73;;;;;;;;;;5033292;28;20574;-87
2022/04/20 03:00:30;;;;;;;5.00;3.13;;;;;;;;;;5038890;28;20228;-86
2022/04/20 03:02:57;;;;;;;3.20;3.00;;;;;;;;;;5054379;28;20215;-87
2022/04/20 03:05:24;;;;;;;3.07;2.80;;;;;;;;;;5053519;28;20239;-85
2022/04/20 03:07:51;;;;;;;4.80;3.20;;;;;;;;;;5054044;28;20676;-86
2022/04/20 03:10:18;;;;;;;3.47;3.17;;;;;;;;;;5053612;28;20654;-86
2022/04/20 03:12:46;;;;;;;3.23;2.93;;;;;;;;;;5053837;28;20206;-86
2022/04/20 03:15:13;;;;;;;3.00;2.80;;;;;;;;;;5052492;28;20608;-86
2022/04/20 03:17:42;;;;;;;3.50;3.20;;;;;;;;;;5053489;28;20683;-86
2022/04/20 03:20:09;;;;;;;3.23;3.03;;;;;;;;;;5035273;28;20233;-86
2022/04/20 03:22:36;;;;;;;4.87;3.00;;;;;;;;;;5109833;22;20702;-80
2022/04/20 03:25:04;;;;;;;3.57;3.33;;;;;;;;;;5090177;28;20236;-81
2022/04/20 03:27:31;;;;;;;3.30;3.10;;;;;;;;;;5098539;28;20224;-80
2022/04/20 03:29:58;;;;;;;3.70;3.40;;;;;;;;;;5096557;28;20605;-80
2022/04/20 03:32:25;;;;;;;3.43;2.97;;;;;;;;;;5097994;28;20220;-80
2022/04/20 03:34:55;;;;;;;3.10;2.90;;;;;;;;;;5097621;28;20603;-80
2022/04/20 03:37:22;;;;;;;3.87;3.37;;;;;;;;;;5098927;28;20209;-80
2022/04/20 03:39:49;;;;;;;3.30;3.10;;;;;;;;;;5098124;28;20234;-80
2022/04/20 03:42:16;;;;;;;3.50;3.20;;;;;;;;;;5098140;28;20229;-80
2022/04/20 03:44:43;;;;;;;3.20;3.00;;;;;;;;;;5097321;28;20260;-80
2022/04/20 03:47:10;;;;;;;3.80;3.40;;;;;;;;;;5098009;28;20212;-80
2022/04/20 03:49:37;;;;;;;5.17;3.30;;;;;;;;;;5097467;28;20236;-80
2022/04/20 03:52:06;;;;;;;4.83;3.63;;;;;;;;;;5098285;28;20224;-80
2022/04/20 03:54:34;;;;;;;4.93;3.83;;;;;;;;;;5097920;28;20237;-80
2022/04/20 03:57:10;;;;;;;5.67;3.67;;;;;;;;;;5097342;28;20205;-80
2022/04/20 03:59:37;;;;;;;8.47;3.43;;;;;;;;;;5097309;28;20613;-80
2022/04/20 04:02:05;;;;;;;5.87;3.53;;;;;;;;;;5084590;28;20240;-80
2022/04/20 04:04:32;;;;;;;6.83;4.03;;;;;;;;;;5096473;28;20681;-80
2022/04/20 04:06:59;;;;;;;8.80;3.90;;;;;;;;;;5081860;28;20209;-80
2022/04/20 04:09:27;;;;;;;10.47;3.63;;;;;;;;;;5089308;28;20657;-80
2022/04/20 04:11:54;;;;;;;3.73;3.43;;;;;;;;;;5097423;28;20228;-80
2022/04/20 04:14:22;;;;;;;4.50;3.43;;;;;;;;;;5098478;28;20209;-80
2022/04/20 04:16:49;;;;;;;3.90;3.60;;;;;;;;;;5095850;28;20209;-80
2022/04/20 04:19:16;;;;;;;13.07;4.03;;;;;;;;;;5092510;28;20208;-80
2022/04/20 04:21:43;;;;;;;8.57;3.50;;;;;;;;;;5093487;28;20239;-80
2022/04/20 04:24:34;;;;;;;7.43;3.50;;;;;;;;;;5093700;28;20201;-80
2022/04/20 04:27:00;;;;;;;4.97;3.50;;;;;;;;;;5082434;28;20637;-80
2022/04/20 04:29:28;;;;;;;4.63;3.80;;;;;;;;;;5073792;28;20213;-80
2022/04/20 04:31:55;;;;;;;6.70;3.40;;;;;;;;;;5075004;28;20274;-80
2022/04/20 04:34:22;;;;;;;5.10;3.83;;;;;;;;;;5089532;28;20209;-79
2022/04/20 04:36:50;;;;;;;6.50;3.60;;;;;;;;;;5094874;28;20237;-78
2022/04/20 04:39:20;;;;;;;4.43;4.03;;;;;;;;;;5095874;28;20672;-79
2022/04/20 04:41:48;;;;;;;10.27;3.40;;;;;;;;;;5096145;28;20698;-79
2022/04/20 04:44:16;;;;;;;3.47;3.20;;;;;;;;;;5098810;28;20244;-79
2022/04/20 04:49:29;;;;;;;4.00;3.60;;;;;;;;;;5093078;28;20588;-80
2022/04/20 04:52:02;;;;;;;4.30;3.83;;;;;;;;;;5084212;28;20753;-80
2022/04/20 04:54:30;;;;;;;4.17;3.60;;;;;;;;;;5079136;28;20239;-79
2022/04/20 04:56:57;;;;;;;6.17;3.87;;;;;;;;;;5079921;28;20220;-79
2022/04/20 04:59:25;;;;;;;8.47;4.03;;;;;;;;;;5078968;28;20266;-79
2022/04/20 05:01:52;;;;;;;4.43;3.87;;;;;;;;;;5095640;28;20228;-79
2022/04/20 05:04:20;;;;;;;4.20;3.80;;;;;;;;;;5106191;28;20212;-79
2022/04/20 05:06:47;;;;;;;4.23;3.70;;;;;;;;;;5102942;28;20275;-80
2022/04/20 05:09:14;;;;;;;3.97;3.53;;;;;;;;;;5105691;28;20211;-80
2022/04/20 05:11:42;;;;;;;4.63;3.67;;;;;;;;;;5103812;28;20227;-79
2022/04/20 05:14:09;;;;;;;4.57;3.70;;;;;;;;;;5103370;28;20678;-80
2022/04/20 05:16:38;;;;;;;5.13;3.53;;;;;;;;;;5103647;28;20215;-80
2022/04/20 05:19:05;;;;;;;8.40;3.93;;;;;;;;;;5104796;28;20208;-79
2022/04/20 05:21:32;;;;;;;3.93;3.50;;;;;;;;;;5102005;28;20245;-79
2022/04/20 05:23:59;;;;;;;5.63;4.00;;;;;;;;;;5102052;28;20208;-79
2022/04/20 05:26:26;;;;;;;8.10;3.80;;;;;;;;;;5101886;28;20256;-79
2022/04/20 05:28:54;;;;;;;8.37;4.27;;;;;;;;;;5100631;28;20204;-80
2022/04/20 05:31:22;;;;;;;3.83;3.43;;;;;;;;;;5101202;28;20292;-79
2022/04/20 05:33:51;;;;;;;7.57;3.50;;;;;;;;;;5100188;28;20255;-79
2022/04/20 05:36:18;;;;;;;5.00;3.60;;;;;;;;;;5100213;28;20229;-80
2022/04/20 05:41:42;;;;;;;3.90;3.50;;;;;;;;;;5102656;28;20239;-79
2022/04/20 05:44:10;;;;;;;4.00;3.57;;;;;;;;;;5102312;28;20208;-80
2022/04/20 05:46:37;;;;;;;3.83;3.43;;;;;;;;;;5102829;28;20246;-79
2022/04/20 05:49:05;;;;;;;4.73;3.77;;;;;;;;;;5102837;28;20211;-79
2022/04/20 05:51:32;;;;;;;5.33;3.70;;;;;;;;;;5102058;28;20242;-79
2022/04/20 05:54:00;;;;;;;4.17;3.60;;;;;;;;;;5101222;28;20205;-79
2022/04/20 05:56:27;;;;;;;3.73;3.43;;;;;;;;;;5100943;28;20612;-79
2022/04/20 05:58:54;;;;;;;4.57;3.87;;;;;;;;;;5101447;28;20211;-79
2022/04/20 06:01:24;;;;;;;4.20;3.70;;;;;;;;;;5098779;28;20226;-79
2022/04/20 06:03:51;;;;;;;5.83;4.00;;;;;;;;;;5081116;28;20209;-80
2022/04/20 06:06:20;;;;;;;4.50;3.73;;;;;;;;;;5080089;28;20246;-80
2022/04/20 06:08:48;;;;;;;5.27;3.43;;;;;;;;;;5077110;28;20667;-77
2022/04/20 06:11:15;;;;;;;3.73;3.43;;;;;;;;;;5074184;28;20265;-78
2022/04/20 06:13:42;;;;;;;3.73;3.27;;;;;;;;;;5075806;28;20216;-78
2022/04/20 06:16:10;;;;;;;3.67;3.27;;;;;;;;;;5096313;28;20229;-78
2022/04/20 06:18:37;;;;;;;4.57;3.70;;;;;;;;;;5094208;28;20215;-77
2022/04/20 06:21:05;;;;;;;4.87;3.73;;;;;;;;;;5093732;28;20232;-78
2022/04/20 06:23:33;;;;;;;3.80;3.50;;;;;;;;;;5098961;28;20239;-78
2022/04/20 06:26:00;;;;;;;4.20;3.20;;;;;;;;;;5093114;28;20242;-78
2022/04/20 06:28:27;;;;;;;4.07;3.17;;;;;;;;;;5090876;28;20206;-78
2022/04/20 06:30:54;;;;;;;7.90;3.40;;;;;;;;;;5114221;28;20245;-78
2022/04/20 06:33:23;;;;;;;6.80;3.23;;;;;;;;;;5098704;28;20201;-78
2022/04/20 06:35:51;;;;;;;4.17;3.33;;;;;;;;;;5093456;28;20295;-78
2022/04/20 06:38:18;;;;;;;4.17;2.90;;;;;;;;;;5093970;28;20231;-78
2022/04/20 06:40:47;;;;;;;3.40;2.83;;;;;;;;;;5093130;28;20229;-78
2022/04/20 06:43:14;;;;;;;4.00;3.30;;;;;;;;;;5093695;28;20228;-78
2022/04/20 06:45:41;;;;;;;3.20;2.83;;;;;;;;;;5092570;28;20233;-78
2022/04/20 06:48:08;;;;;;;7.30;2.70;;;;;;;;;;5093431;28;20204;-78
2022/04/20 06:50:36;;;;;;;3.40;3.10;;;;;;;;;;5092841;28;20232;-78
2022/04/20 06:58:36;;;;;;;3.17;2.87;;;;;;;;;;5085813;28;20638;-80
2022/04/20 07:01:07;;;;;;;3.03;2.83;;;;;;;;;;5105990;28;20227;-77
2022/04/20 07:03:35;;;;;;;2.97;2.73;;;;;;;;;;5087373;28;20197;-80
2022/04/20 07:06:02;;;;;;;3.03;2.83;;;;;;;;;;5100494;28;20236;-80
2022/04/20 07:08:29;;;;;;;3.17;2.90;;;;;;;;;;5096598;28;20692;-80
2022/04/20 07:10:58;;;;;;;2.80;2.60;;;;;;;;;;5097825;28;20236;-79
2022/04/20 07:13:25;;;;;;;2.97;2.77;;;;;;;;;;5106474;28;20207;-81
2022/04/20 07:15:52;;;;;;;2.50;2.30;;;;;;;;;;5104607;27;20229;-80
2022/04/20 07:18:20;;;;;;;4.77;2.60;;;;;;;;;;5094851;28;20204;-80
2022/04/20 07:20:47;;;;;;;3.23;2.90;;;;;;;;;;5093702;28;20232;-80
2022/04/20 07:23:14;;;;;;;4.87;2.40;;;;;;;;;;5095227;28;20233;-81
2022/04/20 07:25:41;;;;;;;2.50;2.30;;;;;;;;;;5089873;28;20233;-80
2022/04/20 07:28:10;;;;;;;2.80;2.60;;;;;;;;;;5075525;28;20212;-83
2022/04/20 07:30:38;;;;;;;3.90;2.70;;;;;;;;;;5078240;28;20268;-81
2022/04/20 07:33:05;;;;;;;3.50;2.50;;;;;;;;;;5079037;28;20225;-81
2022/04/20 07:35:33;;;;;;;2.60;2.40;;;;;;;;;;5077785;28;20236;-80
2022/04/20 07:38:00;;;;;;;3.00;2.73;;;;;;;;;;5078710;28;20206;-81
2022/04/20 07:40:27;;;;;;;2.57;2.37;;;;;;;;;;5077910;28;20233;-81
2022/04/20 07:42:55;;;;;;;5.57;2.80;;;;;;;;;;5086621;28;20248;-83
2022/04/20 07:45:25;;;;;;;3.00;2.60;;;;;;;;;;5097719;28;20295;-82
2022/04/20 07:47:53;;;;;;;2.50;2.30;;;;;;;;;;5098542;28;20189;-83
2022/04/20 07:50:21;;;;;;;4.00;2.27;;;;;;;;;;5097194;28;20228;-81
2022/04/20 07:52:50;;;;;;;6.03;2.20;;;;;;;;;;5098060;28;20299;-81
2022/04/20 07:55:18;;;;;;;2.63;2.43;;;;;;;;;;5098226;28;20232;-82
2022/04/20 07:57:45;;;;;;;3.57;2.40;;;;;;;;;;5097982;28;20230;-81
2022/04/20 08:00:13;;;;;;;2.50;2.30;;;;;;;;;;5096996;28;20237;-83
2022/04/20 08:02:42;;;;;;;3.93;2.83;;;;;;;;;;5080360;28;20313;-83
2022/04/20 08:05:10;;;;;;;3.10;2.20;;;;;;;;;;5076466;28;20321;-83
2022/04/20 08:07:37;;;;;;;2.50;2.30;;;;;;;;;;5078728;28;20212;-83
2022/04/20 08:10:06;;;;;;;3.33;2.50;;;;;;;;;;5078686;28;20236;-80
2022/04/20 08:12:37;;;;;;;4.10;2.30;;;;;;;;;;5080168;28;20225;-83
2022/04/20 08:15:04;;;;;;;2.60;2.40;;;;;;;;;;5078934;28;20240;-81
2022/04/20 08:17:32;;;;;;;2.83;2.43;;;;;;;;;;5079245;28;20228;-81
2022/04/20 08:20:00;;;;;;;2.57;2.33;;;;;;;;;;5078644;28;20808;-81
2022/04/20 08:22:27;;;;;;;2.50;1.90;;;;;;;;;;5081484;28;20256;-82
2022/04/20 08:24:54;;;;;;;2.10;1.90;;;;;;;;;;5080491;28;20260;-81
2022/04/20 08:27:22;;;;;;;3.87;2.17;;;;;;;;;;5081231;28;20284;-82
2022/04/20 08:29:49;;;;;;;2.17;2.07;;;;;;;;;;5105165;28;20239;-81
2022/04/20 08:32:17;;;;;;;3.17;2.33;;;;;;;;;;5120481;28;20226;-81
2022/04/20 08:34:44;;;;;;;3.00;2.10;;;;;;;;;;5118973;28;20231;-82
2022/04/20 08:37:13;;;;;;;2.77;2.57;;;;;;;;;;5120050;28;20219;-80
2022/04/20 08:39:40;;;;;;;2.30;2.10;;;;;;;;;;5119063;28;20231;-82
2022/04/20 08:42:09;;;;;;;4.10;2.10;;;;;;;;;;5100088;28;20225;-81
2022/04/20 08:44:38;;;;;;;2.43;2.23;;;;;;;;;;5116488;28;20231;-82
2022/04/20 08:47:07;;;;;;;4.03;2.50;;;;;;;;;;5117010;28;20212;-82
2022/04/20 08:49:34;;;;;;;3.15;2.30;;;;;;;;;;5101953;28;20235;-81
2022/04/20 08:54:49;;;;;;;2.60;2.00;;;;;;;;;;5098946;28;20258;-83
2022/04/20 08:57:20;;;;;;;2.97;2.70;;;;;;;;;;5102215;28;20208;-83
2022/04/20 08:59:49;;;;;;;3.42;1.98;;;;;;;;;;5098510;28;20244;-82
2022/04/20 09:02:17;;;;;;;2.58;2.30;;;;;;;;;;5104725;28;20215;-81
2022/04/20 09:04:44;;;;;;;2.28;2.08;;;;;;;;;;5120023;28;20240;-82
2022/04/20 09:07:12;;;;;;;1.98;1.88;;;;;;;;;;5122104;28;20211;-82
2022/04/20 09:09:39;;;;;;;2.38;2.17;;;;;;;;;;5117219;28;20232;-83
2022/04/20 09:12:15;;;;;;;2.42;2.15;;;;;;;;;;5110046;28;20309;-83
2022/04/20 09:14:43;;;;;;;2.50;2.28;;;;;;;;;;5113836;28;20227;-82
2022/04/20 09:17:12;;;;;;;2.50;2.25;;;;;;;;;;5123878;28;20295;-83
2022/04/20 09:19:40;;;;;;;2.58;2.00;;;;;;;;;;5123025;28;20680;-83
2022/04/20 09:22:20;;;;;;;3.13;2.75;;;;;;;;;;5122282;28;20232;-82
2022/04/20 09:24:58;;;;;;;2.47;2.10;;;;;;;;;;5120902;28;20246;-82
2022/04/20 09:27:27;;;;;;;2.75;2.10;;;;;;;;;;5111773;28;20246;-80
2022/04/20 09:29:55;;;;;;;2.17;1.98;;;;;;;;;;5118080;28;20628;-82
2022/04/20 09:32:34;;;;;;;2.33;2.10;;;;;;;;;;5119886;28;20772;-83
2022/04/20 09:35:03;;;;;;;2.25;1.80;;;;;;;;;;5120361;28;20235;-82
2022/04/20 09:37:30;;;;;;;3.03;2.10;;;;;;;;;;5104762;28;20200;-82
2022/04/20 09:39:58;;;;;;;2.35;2.10;;;;;;;;;;5118882;28;20231;-82
2022/04/20 09:42:26;;;;;;;2.88;1.98;;;;;;;;;;5120566;28;20281;-81
2022/04/20 09:44:54;;;;;;;3.50;3.17;;;;;;;;;;5120181;28;20262;-81
2022/04/20 09:50:08;;;;;;;1.88;1.77;;;;;;;;;;5121126;28;20258;-81
2022/04/20 09:52:39;;;;;;;2.20;2.00;;;;;;;;;;5120466;28;20219;-81
2022/04/20 09:55:06;;;;;;;2.08;1.98;;;;;;;;;;5118883;28;20790;-82
2022/04/20 09:57:37;;;;;;;4.88;2.17;;;;;;;;;;5115993;28;20205;-81
2022/04/20 10:00:05;;;;;;;2.22;2.00;;;;;;;;;;5091419;28;20265;-81
2022/04/20 10:02:37;;;;;;;3.33;1.88;;;;;;;;;;5084951;28;20239;-82
2022/04/20 10:05:05;;;;;;;2.55;2.03;;;;;;;;;;5101989;28;20707;-82
2022/04/20 10:07:32;;;;;;;3.25;2.10;;;;;;;;;;5100621;28;20189;-82
2022/04/20 10:09:59;;;;;;;3.08;2.47;;;;;;;;;;5095724;28;20232;-83
2022/04/20 10:12:27;;;;;;;3.92;2.22;;;;;;;;;;5098960;28;20299;-82
2022/04/20 10:17:53;;;;;;;2.42;2.30;;;;;;;;;;5050618;28;20212;-82
2022/04/20 10:20:21;;;;;;;4.30;1.83;;;;;;;;;;5087349;28;20221;-83
2022/04/20 10:22:48;;;;;;;2.25;2.05;;;;;;;;;;5074507;28;20696;-81
2022/04/20 10:25:16;;;;;;;2.00;1.90;;;;;;;;;;5074580;28;20251;-83
2022/04/20 10:27:49;;;;;;;2.30;2.10;;;;;;;;;;5075842;28;20205;-82
2022/04/20 10:30:20;;;;;;;2.40;2.20;;;;;;;;;;5075433;28;20232;-82
2022/04/20 10:32:51;;;;;;;2.10;2.00;;;;;;;;;;5073527;28;20645;-83
2022/04/20 10:35:18;;;;;;;2.72;1.95;;;;;;;;;;5074773;28;20256;-82
2022/04/20 10:38:00;;;;;;;2.05;1.95;;;;;;;;;;5095919;28;20204;-82
2022/04/20 10:40:28;;;;;;;2.03;1.92;;;;;;;;;;5096526;28;20248;-82
2022/04/20 10:43:10;;;;;;;3.85;2.00;;;;;;;;;;5098916;28;20232;-80
2022/04/20 10:45:38;;;;;;;2.60;1.77;;;;;;;;;;5096934;28;20236;-81
2022/04/20 10:48:05;;;;;;;2.92;1.70;;;;;;;;;;5097252;28;20205;-80
2022/04/20 10:50:32;;;;;;;2.80;1.73;;;;;;;;;;5094754;28;20238;-81
2022/04/20 10:53:03;;;;;;;1.60;1.50;;;;;;;;;;5096138;28;20233;-81
2022/04/20 10:55:52;;;;;;;1.80;1.70;;;;;;;;;;5095677;28;20228;-82
2022/04/20 10:58:21;;;;;;;5.03;1.90;;;;;;;;;;5091523;28;20213;-81
2022/04/20 11:01:08;;;;;;;2.33;2.13;;;;;;;;;;5073660;28;20240;-81
2022/04/20 11:03:50;;;;;;;2.90;1.85;;;;;;;;;;5076544;28;20225;-82
2022/04/20 11:06:17;;;;;;;2.92;1.73;;;;;;;;;;5075206;28;20603;-81
2022/04/20 11:08:44;;;;;;;2.58;1.83;;;;;;;;;;5076086;28;20657;-81
2022/04/20 11:19:49;;;;;;;4.60;2.03;;;;;;;;;;5077904;28;20240;-81
2022/04/20 11:22:16;;;;;;;2.35;1.80;;;;;;;;;;5079306;28;20253;-81
2022/04/20 11:24:44;;;;;;;2.40;1.92;;;;;;;;;;5076244;28;20241;-81
2022/04/20 11:27:11;;;;;;;2.28;1.92;;;;;;;;;;5089999;28;20239;-82
2022/04/20 11:29:43;;;;;;;2.10;1.90;;;;;;;;;;5117229;28;20251;-82
2022/04/20 11:32:11;;;;;;;2.10;1.77;;;;;;;;;;5094864;28;20232;-84
2022/04/20 11:34:41;;;;;;;1.70;1.60;;;;;;;;;;5113763;28;20239;-84
2022/04/20 11:37:09;;;;;;;1.80;1.70;;;;;;;;;;5105818;28;20211;-84
2022/04/20 11:39:36;;;;;;;2.00;1.80;;;;;;;;;;5101633;28;20596;-84
2022/04/20 11:42:04;;;;;;;3.22;2.05;;;;;;;;;;5095676;28;20240;-82
2022/04/20 11:44:32;;;;;;;1.95;1.52;;;;;;;;;;5099334;28;20237;-83
2022/04/20 11:47:01;;;;;;;1.95;1.85;;;;;;;;;;5098809;28;20274;-84
2022/04/20 11:49:32;;;;;;;2.53;1.80;;;;;;;;;;5093617;28;20208;-83
2022/04/20 11:52:00;;;;;;;1.60;1.50;;;;;;;;;;5091213;28;20243;-82
2022/04/20 11:54:28;;;;;;;2.50;1.77;;;;;;;;;;5099005;28;20561;-84
2022/04/20 11:56:56;;;;;;;2.25;1.95;;;;;;;;;;5096456;28;20208;-83
2022/04/20 11:59:24;;;;;;;1.95;1.80;;;;;;;;;;5107192;28;20231;-84
2022/04/20 12:01:53;;;;;;;2.13;1.70;;;;;;;;;;5093409;28;20217;-84
2022/04/20 12:04:20;;;;;;;2.08;1.77;;;;;;;;;;5074571;28;20209;-82
2022/04/20 12:06:52;;;;;;;1.75;1.65;;;;;;;;;;5074564;28;20585;-83
2022/04/20 12:09:21;;;;;;;2.83;1.83;;;;;;;;;;5073969;28;20205;-83
2022/04/20 12:11:48;;;;;;;1.70;1.60;;;;;;;;;;5073819;28;20236;-83
2022/04/20 12:14:16;;;;;;;4.40;1.90;;;;;;;;;;5077191;28;20201;-83
2022/04/20 12:16:43;;;;;;;2.42;1.73;;;;;;;;;;5090870;28;20283;-83
2022/04/20 12:19:10;;;;;;;2.78;1.83;;;;;;;;;;5091008;28;20209;-83
2022/04/20 12:21:40;;;;;;;1.85;1.75;;;;;;;;;;5093908;28;20244;-83
2022/04/20 12:24:09;;;;;;;2.50;1.70;;;;;;;;;;5093919;28;20230;-83
2022/04/20 12:26:41;;;;;;;3.60;2.17;;;;;;;;;;5093450;28;20251;-83
2022/04/20 12:29:08;;;;;;;1.70;1.60;;;;;;;;;;5091577;28;20293;-83
2022/04/20 12:31:37;;;;;;;2.92;2.00;;;;;;;;;;5092879;28;20236;-83
2022/04/20 12:34:05;;;;;;;1.77;1.67;;;;;;;;;;5096185;28;20640;-83
2022/04/20 12:36:32;;;;;;;2.08;1.85;;;;;;;;;;5093042;28;20240;-83
2022/04/20 12:39:00;;;;;;;1.75;1.65;;;;;;;;;;5093154;28;20577;-83
2022/04/20 12:41:41;;;;;;;3.10;1.98;;;;;;;;;;5080284;28;20228;-82
2022/04/20 12:44:28;;;;;;;3.88;1.98;;;;;;;;;;5076127;28;20225;-83
2022/04/20 12:46:55;;;;;;;1.85;1.75;;;;;;;;;;5076161;28;20209;-85
2022/04/20 12:49:25;;;;;;;1.70;1.60;;;;;;;;;;5106250;28;20208;-83
2022/04/20 12:51:53;;;;;;;2.72;1.52;;;;;;;;;;5120099;28;20273;-83
2022/04/20 12:54:24;;;;;;;1.88;1.67;;;;;;;;;;5086212;28;20198;-82
2022/04/20 13:02:23;;;;;;;2.38;1.70;;;;;;;;;;5096766;28;20219;-83
2022/04/20 13:04:50;;;;;;;2.20;1.80;;;;;;;;;;5096931;28;20243;-83
2022/04/20 13:07:17;;;;;;;2.10;1.90;;;;;;;;;;5099622;28;20649;-82
2022/04/20 13:09:44;;;;;;;3.45;2.33;;;;;;;;;;5097703;28;20231;-84
2022/04/20 13:12:13;;;;;;;4.90;1.80;;;;;;;;;;5097221;28;20229;-84
2022/04/20 13:14:41;;;;;;;1.95;1.55;;;;;;;;;;5099376;28;20232;-82
2022/04/20 13:17:09;;;;;;;2.13;1.85;;;;;;;;;;5119923;28;20660;-82
2022/04/20 13:19:37;;;;;;;1.83;1.50;;;;;;;;;;5117985;28;20314;-82
2022/04/20 13:22:05;;;;;;;2.45;1.60;;;;;;;;;;5117593;28;20232;-82
2022/04/20 13:30:03;;;;;;;2.95;1.65;;;;;;;;;;5116433;28;20241;-81
2022/04/20 13:32:30;;;;;;;2.28;1.60;;;;;;;;;;5117236;28;20231;-82
2022/04/20 13:34:58;;;;;;;2.08;1.70;;;;;;;;;;5116534;28;20236;-81
2022/04/20 13:37:25;;;;;;;1.60;1.50;;;;;;;;;;5117181;28;20211;-84
2022/04/20 13:39:52;;;;;;;2.28;1.50;;;;;;;;;;5115737;28;20231;-84
2022/04/20 13:42:21;;;;;;;2.20;1.75;;;;;;;;;;5096301;28;20600;-84
2022/04/20 13:44:49;;;;;;;2.03;1.55;;;;;;;;;;5095965;28;20254;-82
2022/04/20 13:47:16;;;;;;;1.50;1.40;;;;;;;;;;5096822;28;20212;-83
2022/04/20 13:49:43;;;;;;;1.80;1.70;;;;;;;;;;5096596;28;20240;-82
2022/04/20 13:52:10;;;;;;;1.58;1.48;;;;;;;;;;5097161;28;20598;-82
2022/04/20 13:54:37;;;;;;;1.75;1.45;;;;;;;;;;5095693;28;20727;-82
2022/04/20 13:57:05;;;;;;;1.92;1.75;;;;;;;;;;5096499;28;20212;-82
2022/04/20 13:59:33;;;;;;;1.63;1.52;;;;;;;;;;5095042;28;20237;-82
2022/04/20 14:02:01;;;;;;;1.95;1.67;;;;;;;;;;5094661;28;20217;-82
2022/04/20 14:04:28;;;;;;;6.03;2.22;;;;;;;;;;5094769;28;20244;-82
2022/04/20 14:06:55;;;;;;;3.40;2.15;;;;;;;;;;5091833;28;20210;-82
2022/04/20 14:09:22;;;;;;;3.10;1.90;;;;;;;;;;5076066;28;20201;-81
2022/04/20 14:11:49;;;;;;;2.38;1.90;;;;;;;;;;5075402;28;20225;-81
2022/04/20 14:14:16;;;;;;;2.25;2.00;;;;;;;;;;5081807;28;20193;-83
2022/04/20 14:16:45;;;;;;;3.33;2.00;;;;;;;;;;5099289;28;20201;-84
2022/04/20 14:19:12;;;;;;;5.03;2.22;;;;;;;;;;5098739;28;20205;-84
2022/04/20 14:21:39;;;;;;;1.70;1.60;;;;;;;;;;5098242;28;20232;-83
2022/04/20 14:24:06;;;;;;;1.52;1.42;;;;;;;;;;5094910;28;20224;-83
2022/04/20 14:32:12;;;;;;;2.47;1.70;;;;;;;;;;5076454;28;20243;-82
2022/04/20 14:34:39;;;;;;;1.77;1.65;;;;;;;;;;5078485;28;20686;-85
2022/04/20 14:37:07;;;;;;;1.50;1.40;;;;;;;;;;5075258;28;20225;-84
2022/04/20 14:39:36;;;;;;;1.70;1.60;;;;;;;;;;5075902;28;20233;-83
2022/04/20 14:42:04;;;;;;;1.75;1.50;;;;;;;;;;5078398;28;20237;-83
2022/04/20 14:44:34;;;;;;;1.42;1.20;;;;;;;;;;5095272;28;20704;-84
2022/04/20 14:47:01;;;;;;;8.20;2.47;;;;;;;;;;5097734;28;20212;-84
2022/04/20 14:49:30;;;;;;;1.60;1.50;;;;;;;;;;5096569;28;20201;-84
2022/04/20 14:51:57;;;;;;;1.50;1.40;;;;;;;;;;5093729;28;20232;-85
2022/04/20 14:54:24;;;;;;;1.67;1.45;;;;;;;;;;5094417;28;20216;-85
2022/04/20 14:56:51;;;;;;;2.58;1.52;;;;;;;;;;5097348;28;20212;-84
2022/04/20 14:59:18;;;;;;;1.88;1.63;;;;;;;;;;5098388;28;20690;-84
2022/04/20 15:01:45;;;;;;;3.25;1.77;;;;;;;;;;5095751;28;20233;-83
2022/04/20 15:04:12;;;;;;;1.80;1.40;;;;;;;;;;5094110;28;20223;-83
2022/04/20 15:06:41;;;;;;;3.75;1.58;;;;;;;;;;5094186;28;20212;-83
2022/04/20 15:09:09;;;;;;;1.42;1.33;;;;;;;;;;5094850;28;20207;-83
2022/04/20 15:11:37;;;;;;;1.77;1.35;;;;;;;;;;5096380;28;20228;-82
2022/04/20 15:14:04;;;;;;;2.85;1.60;;;;;;;;;;5103245;28;20243;-84
2022/04/20 15:16:31;;;;;;;2.97;1.42;;;;;;;;;;5090922;28;20232;-85
2022/04/20 15:18:58;;;;;;;1.50;1.40;;;;;;;;;;5081480;28;20202;-84
2022/04/20 15:21:25;;;;;;;2.53;1.60;;;;;;;;;;5077579;28;20257;-84
2022/04/20 15:23:54;;;;;;;2.53;1.48;;;;;;;;;;5073802;28;20324;-84
2022/04/20 15:26:21;;;;;;;2.38;1.60;;;;;;;;;;5073958;28;20228;-84
2022/04/20 15:28:49;;;;;;;6.43;2.60;;;;;;;;;;5074784;28;20209;-84
2022/04/20 15:31:16;;;;;;;4.45;1.58;;;;;;;;;;5072875;28;20242;-85
2022/04/20 15:33:43;;;;;;;2.75;1.42;;;;;;;;;;5073523;28;20204;-83
2022/04/20 15:36:11;;;;;;;5.97;1.67;;;;;;;;;;5074314;28;20256;-82
2022/04/20 15:38:39;;;;;;;2.22;1.25;;;;;;;;;;5075965;28;20201;-83